Time;durP1;ratioP1;P1;durP2;ratioP2;P2;SDS_P1;SDS_P2;PMS_P1;PMS_P2;Temp;Humidity;BMP_temperature;BMP_pressure;BME280_temperature;BME280_humidity;BME280_pressure;Samples;Min_cycle;Max_cycle;Signal;HPM_P1;HPM_P2
2021/06/15 00:00:46;;;;;;;14.85;4.87;;;;;;;19.88;89.24;100993.50;1708009;84;21282;-72
2021/06/15 00:03:19;;;;;;;12.53;3.98;;;;;;;19.92;89.06;100990.28;1708000;84;21219;-73
2021/06/15 00:05:51;;;;;;;;;;;;;;;19.88;88.85;100991.49;1710583;84;21345;-72
2021/06/15 00:08:24;;;;;;;21.35;4.62;;;;;;;19.89;88.93;100997.98;1707879;84;20260;-76
2021/06/15 00:10:59;;;;;;;7.20;3.50;;;;;;;19.87;88.90;100996.06;1707803;84;21869;-76
2021/06/15 00:13:32;;;;;;;18.37;5.60;;;;;;;19.87;88.93;100995.47;1708068;84;21398;-74
2021/06/15 00:16:04;;;;;;;16.00;4.60;;;;;;;19.86;88.94;100988.16;1707705;84;21199;-74
2021/06/15 00:18:37;;;;;;;16.05;4.78;;;;;;;19.86;88.97;100976.04;1707847;84;21213;-74
2021/06/15 00:21:10;;;;;;;14.25;4.12;;;;;;;19.86;88.98;100978.30;1707868;84;21210;-73
2021/06/15 00:23:43;;;;;;;20.00;4.40;;;;;;;19.86;89.06;100973.22;1708052;83;21195;-73
2021/06/15 00:26:15;;;;;;;11.12;4.40;;;;;;;19.86;89.08;100982.53;1707965;84;21397;-74
2021/06/15 00:28:48;;;;;;;11.40;4.25;;;;;;;19.91;89.12;100980.16;1707912;83;21352;-74
2021/06/15 00:31:24;;;;;;;13.70;3.65;;;;;;;19.96;88.84;100971.03;1707879;84;21715;-74
2021/06/15 00:33:55;;;;;;;22.87;5.40;;;;;;;19.96;88.56;100978.65;1704747;82;21270;-76
2021/06/15 00:36:28;;;;;;;5.90;3.50;;;;;;;19.95;88.44;100976.98;1707973;84;21348;-77
2021/06/15 00:39:01;;;;;;;7.60;3.60;;;;;;;19.94;88.57;100980.37;1708269;83;21262;-72
2021/06/15 00:41:35;;;;;;;15.70;3.83;;;;;;;19.98;88.50;100984.23;1707931;84;21357;-72
2021/06/15 00:44:12;;;;;;;10.48;4.05;;;;;;;19.98;88.30;100982.83;1707849;84;21214;-73
2021/06/15 00:46:44;;;;;;;9.75;4.00;;;;;;;19.98;88.16;100977.19;1699693;84;21329;-72
2021/06/15 00:49:17;;;;;;;11.50;5.03;;;;;;;19.99;88.01;100980.26;1708026;83;21349;-72
2021/06/15 00:51:50;;;;;;;12.90;4.42;;;;;;;19.96;87.98;100978.08;1674233;84;21755;-73
2021/06/15 00:54:24;;;;;;;14.98;5.17;;;;;;;19.91;88.07;100975.38;1708123;83;21352;-72
2021/06/15 00:56:57;;;;;;;10.93;4.50;;;;;;;19.90;88.11;100972.86;1707779;84;21353;-78
2021/06/15 00:59:30;;;;;;;;;;;;;;;19.84;88.03;100970.74;1710706;84;21361;-77
2021/06/15 01:02:02;;;;;;;16.67;4.75;;;;;;;19.80;88.11;100966.88;1707917;83;20520;-74
2021/06/15 01:04:35;;;;;;;;;;;;;;;19.76;88.22;100967.23;1710373;84;21850;-72
2021/06/15 01:07:24;;;;;;;13.05;4.45;;;;;;;19.79;88.28;100971.41;1707833;84;20184;-73
2021/06/15 01:10:29;;;;;;;10.43;4.92;;;;;;;19.80;88.24;100972.51;1707889;84;21266;-71
2021/06/15 01:13:16;;;;;;;20.43;5.00;;;;;;;19.81;88.11;100969.13;1707697;82;21210;-73
2021/06/15 01:16:14;;;;;;;11.88;4.35;;;;;;;19.79;87.97;100964.36;1707790;84;21348;-75
2021/06/15 01:18:55;;;;;;;8.03;4.10;;;;;;;19.77;88.05;100969.48;1697114;83;21345;-72
2021/06/15 01:21:27;;;;;;;13.60;4.37;;;;;;;19.76;88.07;100963.59;1699105;84;21724;-78
2021/06/15 01:24:14;;;;;;;14.03;4.87;;;;;;;19.78;88.02;100965.52;1711202;84;21881;-71
2021/06/15 01:27:24;;;;;;;11.60;4.30;;;;;;;19.77;87.94;100964.70;1712777;84;21688;-73
2021/06/15 01:29:57;;;;;;;11.05;3.62;;;;;;;19.75;87.84;100963.34;1710235;84;21873;-72
2021/06/15 01:32:31;;;;;;;;;;;;;;;19.71;87.88;100958.91;1715310;84;21388;-74
2021/06/15 01:35:06;;;;;;;13.88;4.42;;;;;;;19.67;88.04;100959.83;1713071;84;20184;-76
2021/06/15 01:37:44;;;;;;;11.70;4.30;;;;;;;19.62;88.20;100962.78;1712817;84;21344;-76
2021/06/15 01:40:20;;;;;;;9.53;3.87;;;;;;;19.60;88.31;100969.28;1711096;83;21210;-74
2021/06/15 01:43:03;;;;;;;17.77;3.98;;;;;;;19.57;88.43;100972.74;1678417;84;22111;-77
2021/06/15 01:45:43;;;;;;;16.37;5.37;;;;;;;19.57;88.45;100972.74;1712857;83;21175;-78
2021/06/15 01:48:31;;;;;;;14.28;4.33;;;;;;;19.58;88.50;100977.23;1712816;84;21384;-78
2021/06/15 01:51:05;;;;;;;19.40;4.53;;;;;;;19.59;88.47;100978.33;1712929;84;21902;-78
2021/06/15 01:53:47;;;;;;;23.00;4.60;;;;;;;19.58;88.24;100980.86;1712811;84;21744;-77
2021/06/15 01:56:21;;;;;;;14.35;5.03;;;;;;;19.54;88.25;100981.25;1712381;84;21329;-75
2021/06/15 01:58:58;;;;;;;13.15;4.28;;;;;;;19.51;88.37;100990.30;1712877;83;21767;-76
2021/06/15 02:01:32;;;;;;;14.65;4.55;;;;;;;19.50;88.48;100980.78;1712882;83;21292;-76
2021/06/15 02:04:07;;;;;;;19.42;4.97;;;;;;;19.48;88.50;100992.36;1713779;84;21692;-76
2021/06/15 02:06:41;;;;;;;7.30;4.10;;;;;;;19.48;88.51;100994.32;1714672;83;21206;-80
2021/06/15 02:09:14;;;;;;;15.93;5.40;;;;;;;19.49;88.55;100991.77;1714616;84;21219;-77
2021/06/15 02:11:49;;;;;;;21.62;5.45;;;;;;;19.49;88.51;100990.35;1712210;82;21250;-76
2021/06/15 02:14:38;;;;;;;13.55;4.30;;;;;;;19.48;88.45;100990.09;1709401;84;21978;-74
2021/06/15 02:17:23;;;;;;;12.40;4.10;;;;;;;19.47;88.40;100991.25;1702482;83;21210;-74
2021/06/15 02:20:04;;;;;;;13.85;4.50;;;;;;;19.45;88.37;100990.73;1708123;83;21207;-76
2021/06/15 02:22:37;;;;;;;14.70;4.70;;;;;;;19.44;88.51;100992.70;1707820;84;21348;-68
2021/06/15 02:25:11;;;;;;;10.85;4.50;;;;;;;19.44;88.64;100993.30;1708203;83;21329;-74
2021/06/15 02:27:45;;;;;;;14.00;5.03;;;;;;;19.39;88.64;100989.17;1708253;83;21391;-75
2021/06/15 02:30:18;;;;;;;11.03;4.35;;;;;;;19.37;88.73;100983.84;1687881;82;21278;-74
2021/06/15 02:32:52;;;;;;;17.80;5.22;;;;;;;19.38;88.69;100981.88;1705881;83;21371;-78
2021/06/15 02:35:26;;;;;;;19.30;5.00;;;;;;;19.40;88.77;100982.38;1709531;83;21858;-75
2021/06/15 02:38:08;;;;;;;9.73;4.70;;;;;;;19.43;88.59;100988.78;1709819;82;21873;-75
2021/06/15 02:40:41;;;;;;;15.40;4.67;;;;;;;19.45;88.26;100977.47;1708963;83;21191;-78
2021/06/15 02:43:14;;;;;;;15.45;4.50;;;;;;;19.45;88.22;100987.92;1708834;83;21198;-75
2021/06/15 02:45:47;;;;;;;11.70;4.67;;;;;;;19.47;88.26;100985.61;1703639;82;21348;-75
2021/06/15 02:48:19;;;;;;;17.52;6.20;;;;;;;19.54;88.22;100991.66;1706261;83;21352;-77
2021/06/15 02:50:54;;;;;;;19.37;5.60;;;;;;;19.60;87.91;100993.23;1708164;84;21837;-76
2021/06/15 02:53:52;;;;;;;14.33;5.15;;;;;;;19.61;87.73;100994.90;1707854;83;21372;-76
2021/06/15 02:56:25;;;;;;;14.25;4.95;;;;;;;19.59;87.68;100997.20;1705009;82;21384;-76
2021/06/15 02:58:58;;;;;;;15.55;5.92;;;;;;;19.60;87.78;100994.64;1686568;84;21267;-78
2021/06/15 03:01:31;;;;;;;23.18;6.25;;;;;;;19.60;87.73;100998.88;1709002;84;21898;-75
2021/06/15 03:04:04;;;;;;;;;;;;;;;19.60;87.75;101004.50;1711909;83;21231;-74
2021/06/15 03:06:37;;;;;;;17.15;4.75;;;;;;;19.62;87.57;101005.05;1709343;84;20275;-76
2021/06/15 03:09:12;;;;;;;12.28;5.37;;;;;;;19.63;87.59;101003.89;1709762;84;21341;-76
2021/06/15 03:11:50;;;;;;;11.22;5.40;;;;;;;19.67;87.45;101004.92;1709425;82;21707;-76
2021/06/15 03:14:25;;;;;;;10.40;4.35;;;;;;;19.71;87.46;101008.23;1709267;84;21677;-76
2021/06/15 03:17:01;;;;;;;17.92;5.30;;;;;;;19.80;87.27;101006.92;1709289;83;21340;-77
2021/06/15 03:20:07;;;;;;;19.48;5.28;;;;;;;19.90;86.84;101012.33;1709324;84;21707;-65
2021/06/15 03:23:06;;;;;;;11.43;5.25;;;;;;;19.93;86.46;101012.53;1687121;85;21189;-68
2021/06/15 03:25:39;;;;;;;11.60;4.97;;;;;;;19.95;86.45;101012.23;1699741;84;21349;-69
2021/06/15 03:28:27;;;;;;;8.65;4.53;;;;;;;19.99;86.38;101016.09;1708086;84;21596;-68
2021/06/15 03:31:02;;;;;;;11.95;5.08;;;;;;;20.04;86.19;101017.38;1702542;84;21930;-70
2021/06/15 03:33:36;;;;;;;14.98;6.12;;;;;;;20.13;85.95;101011.30;1707959;84;21855;-68
2021/06/15 03:36:10;;;;;;;23.00;5.40;;;;;;;20.19;85.70;101010.03;1707791;84;21188;-69
2021/06/15 03:38:43;;;;;;;20.95;5.25;;;;;;;20.26;85.47;101015.51;1698232;84;21345;-68
2021/06/15 03:41:17;;;;;;;20.10;5.10;;;;;;;20.31;84.99;101007.50;1708167;84;21361;-68
2021/06/15 03:43:57;;;;;;;19.95;5.90;;;;;;;20.39;85.03;101008.14;1708145;84;21194;-68
2021/06/15 03:46:31;;;;;;;17.07;5.47;;;;;;;20.51;84.92;101014.06;1707950;84;21397;-69
2021/06/15 03:49:07;;;;;;;19.73;4.80;;;;;;;20.61;84.80;101003.36;1707899;84;21484;-70
2021/06/15 03:51:45;;;;;;;15.50;4.97;;;;;;;20.73;84.26;101006.45;1707761;84;21736;-69
2021/06/15 03:54:17;;;;;;;9.90;5.33;;;;;;;20.89;83.63;100998.45;1707958;84;21352;-70
2021/06/15 03:56:51;;;;;;;18.25;5.92;;;;;;;20.98;82.91;100993.72;1708205;84;21345;-69
2021/06/15 03:59:32;;;;;;;15.13;5.65;;;;;;;21.04;82.31;100986.78;1708131;84;21724;-71
2021/06/15 04:02:05;;;;;;;9.40;4.65;;;;;;;21.10;81.97;100983.48;1708250;84;21198;-69
2021/06/15 04:04:38;;;;;;;18.35;5.70;;;;;;;21.17;81.32;100986.70;1708532;84;21925;-67
2021/06/15 04:07:14;;;;;;;17.62;5.42;;;;;;;21.23;80.55;100984.56;1709149;84;21850;-75
2021/06/15 04:09:49;;;;;;;11.05;6.12;;;;;;;21.31;80.34;100998.74;1708677;84;21262;-72
2021/06/15 04:12:26;;;;;;;18.87;5.72;;;;;;;21.45;79.63;100988.16;1707814;84;21409;-72
2021/06/15 04:15:00;;;;;;;15.58;6.22;;;;;;;21.50;79.56;100975.87;1707762;84;21337;-75
2021/06/15 04:17:37;;;;;;;16.73;6.20;;;;;;;21.53;79.38;100973.83;1707731;84;21345;-72
2021/06/15 04:20:11;;;;;;;18.42;6.08;;;;;;;21.60;79.42;100975.03;1707719;84;21251;-72
2021/06/15 04:22:47;;;;;;;24.45;5.95;;;;;;;21.69;78.98;100970.86;1709350;84;21356;-70
2021/06/15 04:25:24;;;;;;;24.95;5.58;;;;;;;21.72;77.69;100965.94;1709122;82;21364;-78
2021/06/15 04:27:56;;;;;;;14.45;7.22;;;;;;;21.71;77.63;100972.77;1687953;85;21340;-69
2021/06/15 04:30:30;;;;;;;15.70;6.35;;;;;;;21.71;77.60;100961.45;1687818;85;21213;-75
2021/06/15 04:33:06;;;;;;;20.08;5.47;;;;;;;21.65;77.11;100955.66;1701390;84;21396;-88
2021/06/15 04:35:51;;;;;;;16.42;4.78;;;;;;;21.51;77.29;100961.42;1709389;84;21219;-80
2021/06/15 04:38:44;;;;;;;16.93;4.95;;;;;;;21.42;77.39;100955.48;1709576;83;21806;-78
2021/06/15 04:41:22;;;;;;;12.37;5.47;;;;;;;21.27;77.87;100953.10;1686548;83;21340;-78
2021/06/15 04:44:00;;;;;;;16.75;6.37;;;;;;;21.12;78.78;100954.92;1687526;83;21845;-78
2021/06/15 04:46:48;;;;;;;14.33;5.70;;;;;;;21.07;79.53;100946.58;1687735;85;21347;-79
2021/06/15 04:50:00;;;;;;;15.18;6.17;;;;;;;21.05;79.97;100952.58;1687738;85;21347;-78
2021/06/15 04:52:33;;;;;;;27.27;6.47;;;;;;;21.04;80.21;100962.17;1701117;82;21352;-82
2021/06/15 04:55:07;;;;;;;24.23;5.95;;;;;;;21.02;80.17;100962.27;1708190;84;21242;-78
2021/06/15 04:57:40;;;;;;;;;;;;;;;20.99;80.38;100952.45;1710827;82;21423;-80
2021/06/15 05:00:13;;;;;;;16.87;5.90;;;;;;;20.98;80.31;100956.41;1711811;82;20303;-79
2021/06/15 05:02:46;;;;;;;12.60;5.90;;;;;;;20.94;79.96;100953.15;1707509;82;21218;-81
2021/06/15 05:05:18;;;;;;;18.57;5.50;;;;;;;20.92;80.17;100949.23;1707744;83;21253;-80
2021/06/15 05:07:59;;;;;;;14.98;4.90;;;;;;;20.89;79.95;100960.34;1707906;83;21223;-82
2021/06/15 05:10:33;;;;;;;18.60;6.40;;;;;;;20.86;79.92;100968.02;1704454;82;21370;-84
2021/06/15 05:13:10;;;;;;;14.13;6.05;;;;;;;20.84;80.11;100971.76;1706842;84;21704;-82
2021/06/15 05:15:43;;;;;;;28.30;6.15;;;;;;;20.85;80.42;100975.64;1686200;83;21759;-80
2021/06/15 05:18:16;;;;;;;14.95;5.55;;;;;;;20.87;80.38;100972.51;1708106;82;21370;-77
2021/06/15 05:20:48;;;;;;;25.40;6.03;;;;;;;20.85;80.25;100977.66;1697864;84;21399;-83
2021/06/15 05:23:28;;;;;;;14.90;6.70;;;;;;;20.84;80.26;100975.99;1708373;84;21365;-80
2021/06/15 05:26:01;;;;;;;18.37;7.50;;;;;;;20.87;80.53;100975.34;1686550;84;21348;-85
2021/06/15 05:28:34;;;;;;;13.72;6.03;;;;;;;20.88;80.20;100984.09;1707906;82;21341;-73
2021/06/15 05:31:07;;;;;;;15.35;6.03;;;;;;;20.92;79.96;100995.01;1707731;82;21244;-79
2021/06/15 05:33:39;;;;;;;17.27;6.45;;;;;;;20.91;79.81;100994.75;1707849;82;21214;-74
2021/06/15 05:36:12;;;;;;;13.47;6.47;;;;;;;20.87;80.05;101002.16;1708606;83;21241;-81
2021/06/15 05:38:45;;;;;;;;;;;;;;;20.88;80.21;100993.97;1712191;82;21356;-85
2021/06/15 05:41:17;;;;;;;18.37;6.37;;;;;;;20.89;80.24;100996.48;1709802;82;20619;-79
2021/06/15 05:43:50;;;;;;;15.67;6.30;;;;;;;20.93;80.46;100988.20;1709372;82;21759;-83
2021/06/15 05:46:23;;;;;;;27.70;7.97;;;;;;;20.98;80.36;100989.48;1707980;82;21953;-79
2021/06/15 05:49:03;;;;;;;15.55;7.05;;;;;;;21.07;79.81;100984.70;1708061;83;21396;-79
2021/06/15 05:51:37;;;;;;;13.95;6.83;;;;;;;21.14;79.19;100981.69;1707977;84;21337;-78
2021/06/15 05:54:11;;;;;;;22.22;7.80;;;;;;;21.23;79.10;100984.56;1707766;84;21891;-79
2021/06/15 05:56:44;;;;;;;13.98;7.25;;;;;;;21.32;78.76;100985.43;1707764;83;21349;-79
2021/06/15 05:59:16;;;;;;;24.55;7.45;;;;;;;21.41;78.54;100986.32;1708054;83;21846;-80
2021/06/15 06:01:50;;;;;;;13.60;6.97;;;;;;;21.49;78.57;100986.36;1708783;82;21377;-79
2021/06/15 06:04:28;;;;;;;16.35;6.22;;;;;;;21.55;78.51;100974.33;1709115;84;21858;-79
2021/06/15 06:09:58;;;;;;;13.13;6.20;;;;;;;21.72;78.43;100968.77;1703390;84;21388;-80
2021/06/15 06:12:35;;;;;;;30.35;7.47;;;;;;;21.80;78.08;100970.78;1709251;84;21355;-79
2021/06/15 06:15:11;;;;;;;14.23;7.60;;;;;;;21.89;78.05;100975.89;1709375;84;21388;-78
2021/06/15 06:17:43;;;;;;;25.90;7.95;;;;;;;21.96;77.68;100972.00;1709274;82;21246;-79
2021/06/15 06:20:21;;;;;;;11.97;6.40;;;;;;;22.00;77.61;100971.60;1709139;83;21392;-78
2021/06/15 06:22:55;;;;;;;15.18;6.25;;;;;;;22.04;77.64;100972.59;1709019;83;21270;-80
2021/06/15 06:25:28;;;;;;;14.10;7.00;;;;;;;22.09;77.38;100973.85;1687879;83;21340;-79
2021/06/15 06:28:03;;;;;;;14.73;6.65;;;;;;;22.13;77.24;100971.44;1709380;84;21878;-77
2021/06/15 06:30:36;;;;;;;18.67;6.00;;;;;;;22.18;76.78;100974.11;1707753;83;21216;-78
2021/06/15 06:33:09;;;;;;;18.00;7.10;;;;;;;22.21;76.85;100970.64;1712871;82;21333;-78
2021/06/15 06:35:41;;;;;;;20.50;8.45;;;;;;;22.30;77.03;100976.31;1712798;82;21369;-78
2021/06/15 06:38:14;;;;;;;14.35;6.40;;;;;;;22.39;76.88;100975.16;1712643;82;21329;-79
2021/06/15 06:40:47;;;;;;;15.53;5.83;;;;;;;22.46;76.68;100971.84;1711979;82;21831;-79
2021/06/15 06:43:19;;;;;;;17.80;5.97;;;;;;;22.49;76.20;100959.27;1710235;82;21191;-79
2021/06/15 06:45:52;;;;;;;15.03;5.20;;;;;;;22.49;76.20;100959.27;1712810;83;21341;-78
2021/06/15 06:48:25;;;;;;;16.12;5.87;;;;;;;22.56;76.64;100958.78;1712670;82;21594;-78
2021/06/15 06:50:57;;;;;;;16.33;6.63;;;;;;;22.64;76.65;100959.34;1712414;82;21302;-78
2021/06/15 06:53:32;;;;;;;17.50;6.50;;;;;;;22.72;76.59;100962.17;1712426;82;21724;-79
2021/06/15 06:56:06;;;;;;;8.78;4.70;;;;;;;22.78;76.18;100968.48;1712948;82;21306;-78
2021/06/15 06:58:44;;;;;;;13.75;4.95;;;;;;;22.82;75.60;100975.16;1712998;83;21346;-79
2021/06/15 07:01:17;;;;;;;9.05;4.87;;;;;;;22.84;75.08;100979.89;1710588;83;21348;-79
2021/06/15 07:03:50;;;;;;;10.72;4.90;;;;;;;22.89;75.37;100979.72;1696387;84;21209;-78
2021/06/15 07:06:23;;;;;;;15.25;5.05;;;;;;;22.96;75.40;100972.96;1704429;83;21377;-78
2021/06/15 07:08:56;;;;;;;14.87;5.07;;;;;;;23.02;75.25;100970.20;1708173;82;21404;-78
2021/06/15 07:11:28;;;;;;;15.40;5.50;;;;;;;23.07;75.25;100972.86;1708025;84;22120;-78
2021/06/15 07:14:02;;;;;;;8.45;4.80;;;;;;;23.11;74.71;100966.17;1702311;83;21345;-80
2021/06/15 07:16:36;;;;;;;14.30;4.83;;;;;;;23.15;74.72;100972.00;1708046;84;21350;-78
2021/06/15 07:19:10;;;;;;;12.47;5.45;;;;;;;23.17;74.60;100970.52;1693128;84;21213;-79
2021/06/15 07:21:43;;;;;;;12.68;4.78;;;;;;;23.23;74.57;100968.36;1699466;82;21388;-79
2021/06/15 07:24:15;;;;;;;12.78;4.72;;;;;;;23.24;74.15;100967.19;1703935;84;21266;-79
2021/06/15 07:26:48;;;;;;;15.28;5.47;;;;;;;23.23;73.84;100966.34;1678090;85;21849;-78
2021/06/15 07:29:21;;;;;;;15.88;5.75;;;;;;;23.25;73.43;100973.09;1678111;84;21862;-77
2021/06/15 07:32:00;;;;;;;12.15;5.37;;;;;;;23.20;73.04;100971.86;1660344;85;21387;-80
2021/06/15 07:34:39;;;;;;;16.67;5.37;;;;;;;23.19;73.16;100967.36;1685346;85;21734;-77
2021/06/15 07:37:12;;;;;;;12.13;5.47;;;;;;;23.21;73.14;100967.84;1678102;85;21420;-79
2021/06/15 07:39:46;;;;;;;15.50;5.85;;;;;;;23.23;73.18;100964.11;1677940;85;21333;-79
2021/06/15 07:42:22;;;;;;;13.20;4.78;;;;;;;23.24;72.95;100959.53;1678006;85;21210;-78
2021/06/15 07:44:54;;;;;;;13.25;5.35;;;;;;;23.25;72.86;100961.77;1678183;85;21404;-77
2021/06/15 07:47:27;;;;;;;17.77;4.90;;;;;;;23.25;72.99;100959.77;1678243;85;21407;-81
2021/06/15 07:50:02;;;;;;;8.05;5.28;;;;;;;23.27;72.51;100963.66;1675357;84;21194;-78
2021/06/15 07:52:35;;;;;;;11.65;4.90;;;;;;;23.24;72.35;100957.27;1678076;85;21348;-81
2021/06/15 07:55:10;;;;;;;11.33;5.30;;;;;;;23.21;72.02;100957.92;1678243;85;21400;-80
2021/06/15 07:57:44;;;;;;;12.18;5.50;;;;;;;23.19;71.94;100959.70;1685713;85;21214;-80
2021/06/15 08:00:19;;;;;;;18.17;5.83;;;;;;;23.18;71.96;100953.80;1686084;85;21751;-81
2021/06/15 08:02:52;;;;;;;11.12;5.15;;;;;;;23.18;72.08;100950.11;1688135;85;21343;-78
2021/06/15 08:05:28;;;;;;;13.08;5.72;;;;;;;23.22;72.37;100945.45;1685911;85;21268;-83
2021/06/15 08:08:01;;;;;;;19.10;6.00;;;;;;;23.28;72.67;100946.92;1684289;85;21218;-77
2021/06/15 08:10:34;;;;;;;16.95;5.10;;;;;;;23.36;72.85;100948.89;1678089;85;21210;-78
2021/06/15 08:13:06;;;;;;;12.68;5.87;;;;;;;23.45;72.87;100936.91;1678197;84;21696;-78
2021/06/15 08:15:40;;;;;;;28.62;7.67;;;;;;;23.56;72.96;100942.45;1677809;85;21226;-79
2021/06/15 08:18:13;;;;;;;11.45;5.17;;;;;;;23.70;73.58;100934.53;1678010;85;21408;-79
2021/06/15 08:20:50;;;;;;;8.73;5.30;;;;;;;23.83;73.31;100929.23;1677912;84;21195;-81
2021/06/15 08:23:24;;;;;;;12.23;5.65;;;;;;;23.92;72.90;100927.19;1677988;85;21831;-81
2021/06/15 08:25:56;;;;;;;10.93;4.85;;;;;;;23.97;72.00;100922.16;1678166;84;21300;-80
2021/06/15 08:28:29;;;;;;;8.53;5.55;;;;;;;24.04;72.46;100918.76;1681373;85;21187;-81
2021/06/15 08:31:01;;;;;;;10.93;5.42;;;;;;;24.10;72.42;100923.05;1678044;85;21254;-80
2021/06/15 08:33:35;;;;;;;15.00;6.05;;;;;;;24.15;71.91;100921.44;1677875;85;21389;-79
2021/06/15 08:36:08;;;;;;;10.50;5.13;;;;;;;24.17;71.78;100921.91;1678113;84;21364;-80
2021/06/15 08:38:41;;;;;;;11.15;5.15;;;;;;;24.20;71.13;100918.40;1678344;85;21714;-80
2021/06/15 08:41:21;;;;;;;10.70;5.45;;;;;;;24.20;71.06;100914.95;1678022;85;21198;-80
2021/06/15 08:43:53;;;;;;;12.73;5.15;;;;;;;24.23;71.23;100917.11;1677963;85;21360;-80
2021/06/15 08:46:26;;;;;;;19.87;4.77;;;;;;;24.30;71.59;100906.03;1678355;84;21262;-78
2021/06/15 08:48:59;;;;;;;10.10;4.90;;;;;;;24.35;71.28;100906.41;1678180;85;21214;-80
2021/06/15 08:51:31;;;;;;;10.78;4.30;;;;;;;24.39;70.18;100908.80;1678343;85;21420;-80
2021/06/15 08:54:07;;;;;;;14.25;4.58;;;;;;;24.39;69.50;100897.44;1677981;85;21344;-78
2021/06/15 08:56:39;;;;;;;6.95;4.55;;;;;;;24.40;68.81;100905.62;1677728;84;21387;-79
2021/06/15 08:59:24;;;;;;;10.53;5.03;;;;;;;24.39;68.66;100904.54;1678184;85;21957;-77
2021/06/15 09:02:02;;;;;;;10.15;5.70;;;;;;;24.40;69.11;100897.67;1676602;85;21348;-79
2021/06/15 09:04:35;;;;;;;13.40;5.75;;;;;;;24.44;69.41;100894.39;1677995;84;21376;-78
2021/06/15 09:07:09;;;;;;;;;;;;;;;24.49;69.41;100896.99;1680669;85;21866;-81
2021/06/15 09:09:42;;;;;;;;;;;;;;;24.57;69.77;100884.77;1680491;85;20621;-78
2021/06/15 09:12:21;;;;;;;9.18;5.92;;;;;;;24.65;69.96;100882.42;1678049;85;20292;-78
2021/06/15 09:14:55;;;;;;;15.88;7.03;;;;;;;24.73;69.21;100870.13;1677999;85;21206;-80
2021/06/15 09:17:36;;;;;;;20.37;7.55;;;;;;;24.83;69.16;100871.97;1678364;84;21755;-79
2021/06/15 09:20:25;;;;;;;10.48;6.40;;;;;;;24.97;69.13;100874.46;1678006;85;21395;-80
2021/06/15 09:23:04;;;;;;;17.30;6.67;;;;;;;25.09;68.66;100861.11;1675186;85;21897;-78
2021/06/15 09:25:37;;;;;;;12.85;6.33;;;;;;;25.23;68.25;100850.22;1677977;85;21332;-77
2021/06/15 09:28:21;;;;;;;17.15;6.80;;;;;;;25.32;68.10;100841.03;1707595;82;21866;-77
2021/06/15 09:31:09;;;;;;;15.43;6.42;;;;;;;25.42;68.04;100832.00;1714260;82;21368;-78
2021/06/15 09:33:46;;;;;;;12.85;6.50;;;;;;;25.53;68.05;100829.53;1707729;82;21756;-80
2021/06/15 09:36:29;;;;;;;17.48;7.15;;;;;;;25.66;67.58;100822.63;1707984;84;21361;-78
2021/06/15 09:39:04;;;;;;;19.37;7.50;;;;;;;25.80;67.09;100821.65;1708016;82;21344;-80
2021/06/15 09:41:45;;;;;;;13.75;6.55;;;;;;;25.93;66.71;100816.19;1679361;85;21246;-77
2021/06/15 09:44:26;;;;;;;10.93;7.22;;;;;;;26.02;66.53;100815.47;1691977;82;21685;-78
2021/06/15 09:47:08;;;;;;;24.02;7.28;;;;;;;26.08;66.25;100806.30;1707852;84;21273;-79
2021/06/15 09:49:47;;;;;;;19.90;6.20;;;;;;;26.13;66.60;100806.63;1708088;84;22002;-77
2021/06/15 09:52:32;;;;;;;22.82;6.92;;;;;;;26.17;66.30;100801.88;1707887;82;21235;-77
2021/06/15 09:55:07;;;;;;;12.58;6.45;;;;;;;26.22;66.19;100801.00;1707819;84;21398;-77
2021/06/15 09:57:44;;;;;;;14.05;6.67;;;;;;;26.25;64.41;100793.17;1707910;84;21219;-78
2021/06/15 10:00:20;;;;;;;9.63;6.53;;;;;;;26.25;64.69;100792.34;1705144;84;21699;-80
2021/06/15 10:02:55;;;;;;;15.32;7.35;;;;;;;26.26;64.53;100782.59;1707803;83;21409;-80
2021/06/15 10:05:35;;;;;;;12.70;6.83;;;;;;;26.29;64.38;100776.19;1707828;84;21286;-78
2021/06/15 10:08:11;;;;;;;15.53;6.50;;;;;;;26.32;64.18;100778.29;1707959;84;21226;-80
2021/06/15 10:10:47;;;;;;;10.45;7.40;;;;;;;26.32;63.90;100771.17;1695931;82;21711;-79
2021/06/15 10:13:24;;;;;;;12.65;6.95;;;;;;;26.34;63.98;100758.84;1678112;85;21920;-78
2021/06/15 10:15:56;;;;;;;10.18;7.30;;;;;;;26.39;64.43;100758.58;1705119;84;21333;-79
2021/06/15 10:18:29;;;;;;;12.50;7.37;;;;;;;26.46;64.01;100761.00;1707800;84;21245;-80
2021/06/15 10:21:03;;;;;;;10.08;7.55;;;;;;;26.54;64.02;100748.66;1707971;84;21345;-80
2021/06/15 10:23:37;;;;;;;10.72;7.33;;;;;;;26.62;63.37;100748.23;1707704;83;21341;-78
2021/06/15 10:26:11;;;;;;;14.10;7.87;;;;;;;26.68;63.14;100742.49;1707843;84;21275;-78
2021/06/15 10:28:44;;;;;;;15.25;7.92;;;;;;;26.76;62.95;100738.66;1707733;83;21369;-79
2021/06/15 10:31:17;;;;;;;16.15;8.20;;;;;;;26.86;62.42;100720.39;1707935;84;21689;-78
2021/06/15 10:33:54;;;;;;;15.03;9.30;;;;;;;26.96;62.36;100703.31;1708060;84;21716;-80
2021/06/15 10:36:45;;;;;;;11.00;8.33;;;;;;;27.05;60.95;100711.91;1707827;84;21337;-79
2021/06/15 10:39:22;;;;;;;14.83;9.65;;;;;;;27.12;60.18;100704.94;1707833;83;21219;-79
2021/06/15 10:42:16;;;;;;;16.20;8.98;;;;;;;27.14;59.67;100714.78;1703248;82;21372;-79
2021/06/15 10:45:20;;;;;;;14.78;9.40;;;;;;;27.16;58.35;100703.63;1707787;84;21333;-79
2021/06/15 10:48:15;;;;;;;15.28;9.68;;;;;;;27.18;58.21;100694.13;1706876;83;21889;-78
2021/06/15 10:50:52;;;;;;;14.83;8.63;;;;;;;27.12;55.58;100694.16;1707501;84;21388;-83
2021/06/15 10:53:42;;;;;;;12.45;8.28;;;;;;;26.91;55.84;100693.03;1707861;84;21258;-79
2021/06/15 10:56:23;;;;;;;14.18;8.90;;;;;;;26.68;57.24;100689.77;1707062;84;21835;-77
2021/06/15 10:59:09;;;;;;;18.20;9.88;;;;;;;26.41;57.96;100692.92;1707570;84;21219;-78
2021/06/15 11:01:44;;;;;;;11.85;8.75;;;;;;;26.05;59.71;100702.27;1707388;84;21441;-79
2021/06/15 11:04:20;;;;;;;15.38;10.38;;;;;;;25.50;60.06;100718.70;1707807;84;21337;-77
2021/06/15 11:06:55;;;;;;;21.07;11.78;;;;;;;25.13;61.31;100710.55;1686430;84;21363;-78
2021/06/15 11:09:33;;;;;;;14.10;9.00;;;;;;;24.85;62.67;100753.66;1707558;83;21392;-78
2021/06/15 11:12:07;;;;;;;11.28;8.23;;;;;;;24.47;59.76;100751.68;1707775;84;21428;-78
2021/06/15 11:14:41;;;;;;;10.72;7.08;;;;;;;24.05;58.30;100730.27;1707830;84;21214;-81
2021/06/15 11:17:15;;;;;;;16.55;7.75;;;;;;;23.73;56.56;100714.03;1707114;83;21930;-79
2021/06/15 11:19:50;;;;;;;19.37;8.28;;;;;;;23.52;55.69;100709.78;1707156;83;21194;-80
2021/06/15 11:22:23;;;;;;;15.10;7.70;;;;;;;23.33;55.88;100702.35;1678334;84;21195;-79
2021/06/15 11:25:03;;;;;;;10.82;6.67;;;;;;;23.18;55.85;100710.64;1707841;84;21418;-78
2021/06/15 11:27:35;;;;;;;12.47;6.60;;;;;;;23.01;55.91;100695.13;1707810;83;21404;-80
2021/06/15 11:30:22;;;;;;;9.55;6.08;;;;;;;22.88;56.44;100701.87;1706819;84;21226;-80
2021/06/15 11:33:02;;;;;;;12.90;8.00;;;;;;;22.77;57.19;100696.35;1707899;84;21349;-77
2021/06/15 11:35:42;;;;;;;9.55;8.55;;;;;;;22.69;58.31;100678.83;1704929;84;21372;-80
2021/06/15 11:38:26;;;;;;;9.85;8.25;;;;;;;22.67;59.06;100666.42;1686522;84;21990;-76
2021/06/15 11:41:00;;;;;;;13.40;8.28;;;;;;;22.69;59.73;100654.76;1707390;84;21827;-73
2021/06/15 11:43:36;;;;;;;35.03;9.60;;;;;;;22.76;60.40;100653.63;1707062;83;21772;-73
2021/06/15 11:46:13;;;;;;;26.37;9.88;;;;;;;22.80;60.92;100637.63;1707712;84;21465;-73
2021/06/15 11:48:48;;;;;;;24.12;9.33;;;;;;;22.89;61.50;100631.30;1707709;83;21700;-76
2021/06/15 11:51:24;;;;;;;;;;;;;;;23.00;61.87;100626.31;1707068;84;21341;-73
2021/06/15 11:53:58;;;;;;;13.75;7.35;;;;;;;23.14;62.67;100609.02;1706870;84;20189;-79
2021/06/15 11:56:33;;;;;;;18.87;9.18;;;;;;;23.28;63.11;100603.34;1707898;83;21352;-81
2021/06/15 11:59:07;;;;;;;22.80;8.98;;;;;;;23.45;63.14;100595.26;1709416;84;21227;-79
2021/06/15 12:01:42;;;;;;;15.00;8.95;;;;;;;23.58;63.14;100592.13;1686680;84;21203;-82
2021/06/15 12:04:16;;;;;;;15.63;9.33;;;;;;;23.68;63.26;100585.18;1707975;84;21333;-83